Terminal Aerodrome Forecast
Issued by NWS Nashville, TN

Home | Current Version | Previous Version | Text Only | Print | Product List | Glossary On
Versions: 1 2 3 4 5 6 7 8 9 10 11 12 13 14 15 16 17 18 19 20 21 22 23 24 25 26 27 28 29 30 31 32 33 34 35
000
FTUS44 KOHX 201300 AAA
TAFCSV
TAF AMD
KCSV 201318Z 2013/2112 23002KT 6SM BR BKN015
      TEMPO 2013/2014 BKN008
     FM201500 24006KT P6SM SCT020
     FM201800 25007KT P6SM VCTS SCT030CB=

USA.gov is the U.S. government's official web portal to all federal, state and local government web resources and services.